Time;durP1;ratioP1;P1;durP2;ratioP2;P2;SDS_P1;SDS_P2;PMS_P1;PMS_P2;Temp;Humidity;BMP_temperature;BMP_pressure;BME280_temperature;BME280_humidity;BME280_pressure;Samples;Min_cycle;Max_cycle;Signal;HPM_P1;HPM_P2
2021/12/29 00:01:53;;;;;;;;;;;;;;;8.75;92.16;99492.13;5133986;28;20026;-83
2021/12/29 00:04:33;;;;;;;0.63;0.63;;;;;;;8.72;92.54;99500.09;5152156;28;20163;-83
2021/12/29 00:07:20;;;;;;;1.30;1.17;;;;;;;8.71;92.30;99506.25;5157121;28;20775;-83
2021/12/29 00:09:58;;;;;;;1.42;1.33;;;;;;;8.66;92.70;99505.56;5133579;28;20592;-83
2021/12/29 00:12:45;;;;;;;1.00;0.70;;;;;;;8.69;92.89;99515.06;5139245;28;20042;-83
2021/12/29 00:18:20;;;;;;;0.40;0.40;;;;;;;8.69;92.92;99521.16;5158997;28;20654;-84
2021/12/29 00:20:51;;;;;;;0.65;0.65;;;;;;;8.65;93.26;99522.16;5147038;28;20042;-84
2021/12/29 00:23:22;;;;;;;0.88;0.88;;;;;;;8.63;92.90;99518.78;5165033;28;20105;-85
2021/12/29 00:25:54;;;;;;;0.60;0.60;;;;;;;8.63;93.58;99526.63;5152712;28;20755;-84
2021/12/29 00:28:27;;;;;;;0.68;0.68;;;;;;;8.64;92.83;99523.06;5128740;28;20088;-83
2021/12/29 00:31:10;;;;;;;0.40;0.40;;;;;;;8.61;93.55;99533.66;5135989;28;20026;-83
2021/12/29 00:33:58;;;;;;;0.88;0.88;;;;;;;8.58;93.80;99529.41;5166797;28;20026;-84
2021/12/29 00:36:35;;;;;;;0.73;0.73;;;;;;;8.72;93.31;99546.31;5166172;28;20035;-83
2021/12/29 00:39:11;;;;;;;1.35;1.25;;;;;;;8.72;92.81;99551.56;5131774;28;20034;-85
2021/12/29 00:41:51;;;;;;;1.80;1.20;;;;;;;8.62;93.39;99556.28;5137054;28;20049;-86
2021/12/29 00:44:25;;;;;;;0.70;0.70;;;;;;;8.63;93.53;99571.91;5140376;28;20120;-84
2021/12/29 00:47:01;;;;;;;7.85;0.93;;;;;;;8.59;93.67;99587.78;5150929;28;20083;-84
2021/12/29 00:49:45;;;;;;;0.32;0.32;;;;;;;8.65;92.96;99603.22;5152273;28;20069;-86
2021/12/29 00:52:16;;;;;;;0.30;0.30;;;;;;;8.58;93.18;99604.38;5150729;28;20066;-84
2021/12/29 00:54:50;;;;;;;0.60;0.60;;;;;;;8.59;93.87;99603.47;5131533;28;20050;-83
2021/12/29 00:57:51;;;;;;;1.13;1.13;;;;;;;8.59;93.27;99613.91;5144963;28;20456;-82
2021/12/29 01:01:18;;;;;;;;;;;;;;;;;;;;;
2021/12/29 01:04:13;;;;;;;;;;;;;;;;;;;;;
2021/12/29 01:07:07;;;;;;;0.65;0.65;;;;;;;8.56;93.97;99619.25;5135767;28;20042;-84
2021/12/29 01:09:42;;;;;;;;;;;;;;;8.56;94.00;99625.34;5112291;28;20045;-83
2021/12/29 01:12:16;;;;;;;0.77;0.77;;;;;;;8.60;93.63;99634.78;5135164;28;19913;-82
2021/12/29 01:15:05;;;;;;;;;;;;;;;;;;;;;
2021/12/29 01:17:45;;;;;;;0.70;0.70;;;;;;;8.59;93.43;99640.94;5155278;28;20092;-83
2021/12/29 01:20:34;;;;;;;1.00;1.00;;;;;;;8.63;93.04;99646.91;5142877;28;20777;-84
2021/12/29 01:23:07;;;;;;;1.05;1.05;;;;;;;8.56;93.84;99667.19;5146728;28;20026;-83
2021/12/29 01:25:41;;;;;;;0.70;0.70;;;;;;;8.64;93.45;99653.81;5148796;28;20023;-84
2021/12/29 01:28:22;;;;;;;;;;;;;;;;;;;;;
2021/12/29 01:30:53;;;;;;;0.60;0.60;;;;;;;8.53;94.23;99666.44;5162830;28;20042;-85
2021/12/29 01:33:28;;;;;;;0.55;0.55;;;;;;;8.61;93.96;99674.88;5150197;28;20064;-83
2021/12/29 01:35:59;;;;;;;0.55;0.55;;;;;;;8.56;93.78;99672.41;5170523;28;20110;-83
2021/12/29 01:38:47;;;;;;;0.45;0.45;;;;;;;8.56;93.87;99675.03;5147797;28;20037;-85
2021/12/29 01:41:26;;;;;;;0.88;0.88;;;;;;;8.56;93.84;99689.84;5150141;28;20027;-84
2021/12/29 01:44:03;;;;;;;0.93;0.93;;;;;;;8.56;93.47;99693.34;5133523;28;20040;-84
2021/12/29 01:47:06;;;;;;;0.82;0.82;;;;;;;8.56;93.79;99697.69;5145902;28;20034;-83
2021/12/29 01:49:47;;;;;;;0.40;0.40;;;;;;;8.55;94.04;99711.69;5144179;28;20046;-84
2021/12/29 01:52:24;;;;;;;0.50;0.50;;;;;;;8.56;93.67;99719.47;5153374;28;20046;-84
2021/12/29 01:55:22;;;;;;;0.97;0.97;;;;;;;8.60;93.50;99709.75;5161130;28;20219;-84
2021/12/29 01:58:12;;;;;;;0.73;0.73;;;;;;;8.66;92.67;99725.22;5146049;28;20018;-82
2021/12/29 02:00:45;;;;;;;0.82;0.82;;;;;;;8.63;93.42;99733.19;5143576;28;20023;-84
2021/12/29 02:03:28;;;;;;;0.40;0.40;;;;;;;8.59;93.12;99744.66;5179522;28;20094;-84
2021/12/29 02:06:44;;;;;;;0.50;0.50;;;;;;;8.65;92.61;99757.50;5149655;28;20030;-82
2021/12/29 02:09:18;;;;;;;0.47;0.47;;;;;;;8.63;92.46;99764.56;5165886;28;20046;-84
2021/12/29 02:11:51;;;;;;;;;;;;;;;8.57;92.83;99763.03;5146206;28;20030;-84
2021/12/29 02:14:22;;;;;;;0.90;0.90;;;;;;;8.56;93.42;99778.75;5135931;28;19925;-84
2021/12/29 02:17:00;;;;;;;0.65;0.65;;;;;;;8.53;92.73;99765.78;5158086;28;20041;-84
2021/12/29 02:19:31;;;;;;;0.43;0.43;;;;;;;8.58;93.06;99766.47;5146774;28;20077;-84
2021/12/29 02:22:20;;;;;;;8.18;0.95;;;;;;;8.61;92.73;99771.63;5142131;28;20033;-83
2021/12/29 02:24:55;;;;;;;1.10;1.10;;;;;;;8.57;92.75;99780.44;5153536;28;20050;-85
2021/12/29 02:27:41;;;;;;;0.60;0.60;;;;;;;8.61;92.91;99776.84;5140080;28;20023;-84
2021/12/29 02:30:14;;;;;;;0.98;0.98;;;;;;;8.62;92.92;99778.56;5155472;28;20042;-85
2021/12/29 02:32:49;;;;;;;0.80;0.80;;;;;;;8.66;92.11;99788.88;5153007;28;20034;-85
2021/12/29 02:35:30;;;;;;;0.73;0.73;;;;;;;8.57;92.61;99790.91;5127175;28;20798;-83
2021/12/29 02:38:33;;;;;;;0.93;0.85;;;;;;;8.58;92.68;99780.44;5152183;28;20050;-84
2021/12/29 02:41:16;;;;;;;;;;;;;;;;;;;;;
2021/12/29 02:44:00;;;;;;;0.60;0.60;;;;;;;8.51;92.69;99794.63;5149270;28;20343;-83
2021/12/29 02:46:38;;;;;;;1.40;1.30;;;;;;;8.64;92.34;99795.03;5161095;28;20011;-85
2021/12/29 02:49:31;;;;;;;0.95;0.63;;;;;;;8.53;92.38;99803.22;5171288;28;20586;-83
2021/12/29 02:52:06;;;;;;;0.50;0.50;;;;;;;8.54;92.62;99794.50;5159434;28;20027;-83
2021/12/29 02:55:06;;;;;;;0.70;0.70;;;;;;;8.63;92.01;99806.41;5161199;28;20038;-84
2021/12/29 02:57:46;;;;;;;0.88;0.88;;;;;;;8.52;92.30;99811.13;5176915;28;20028;-83
2021/12/29 03:00:20;;;;;;;0.60;0.60;;;;;;;8.56;92.09;99813.59;5152267;28;20042;-83
2021/12/29 03:02:58;;;;;;;1.65;1.55;;;;;;;8.52;92.06;99811.13;5136220;28;20061;-82
2021/12/29 03:05:32;;;;;;;0.68;0.68;;;;;;;8.62;91.54;99809.94;5127663;28;20459;-82
2021/12/29 03:08:22;;;;;;;0.52;0.52;;;;;;;8.60;91.92;99819.59;5144483;28;20023;-82
2021/12/29 03:11:09;;;;;;;;;;;;;;;;;;;;;
2021/12/29 03:13:47;;;;;;;0.70;0.70;;;;;;;8.49;91.82;99831.25;5145315;28;20285;-83
2021/12/29 03:16:33;;;;;;;0.70;0.70;;;;;;;8.49;91.91;99822.56;5156161;28;20688;-83
2021/12/29 03:19:05;;;;;;;0.55;0.55;;;;;;;8.56;91.82;99831.03;5123622;28;20057;-83
2021/12/29 03:22:08;;;;;;;2.03;1.45;;;;;;;8.54;91.96;99828.47;5146684;28;20489;-82
2021/12/29 03:24:39;;;;;;;0.77;0.77;;;;;;;8.56;91.37;99836.25;5134690;28;20043;-82
2021/12/29 03:27:14;;;;;;;0.50;0.50;;;;;;;8.62;91.47;99839.53;5136803;28;20532;-83
2021/12/29 03:29:49;;;;;;;0.50;0.50;;;;;;;8.49;91.90;99849.53;5143603;28;20049;-83
2021/12/29 03:32:37;;;;;;;0.50;0.50;;;;;;;8.52;91.92;99852.97;5153288;28;20392;-83
2021/12/29 03:35:18;;;;;;;;;;;;;;;;;;;;;
2021/12/29 03:37:53;;;;;;;0.63;0.63;;;;;;;8.60;91.79;99854.41;5154189;28;20265;-84
2021/12/29 03:40:35;;;;;;;;;;;;;;;;;;;;;
2021/12/29 03:43:14;;;;;;;1.58;1.48;;;;;;;8.44;92.18;99856.66;5162569;28;20030;-83
2021/12/29 03:45:57;;;;;;;0.95;0.95;;;;;;;8.49;92.10;99867.84;5156654;28;20042;-84
2021/12/29 03:48:35;;;;;;;0.45;0.45;;;;;;;8.51;91.61;99878.28;5140215;28;20050;-83
2021/12/29 03:51:08;;;;;;;1.35;1.25;;;;;;;8.53;91.70;99886.06;5134354;28;20030;-85
2021/12/29 03:53:58;;;;;;;0.70;0.70;;;;;;;8.50;91.79;99892.25;5168325;28;20042;-83
2021/12/29 03:56:41;;;;;;;0.93;0.93;;;;;;;8.52;91.68;99892.19;5155239;28;20066;-83
2021/12/29 03:59:17;;;;;;;0.45;0.45;;;;;;;8.55;91.50;99902.56;5117004;28;20041;-83
2021/12/29 04:01:50;;;;;;;0.63;0.63;;;;;;;8.49;91.30;99894.00;5130284;28;20033;-84
2021/12/29 04:04:38;;;;;;;0.40;0.40;;;;;;;8.47;91.28;99903.63;5138603;28;20050;-85
2021/12/29 04:07:09;;;;;;;0.65;0.63;;;;;;;8.59;90.98;99909.38;5151025;28;20029;-83
2021/12/29 04:09:44;;;;;;;0.65;0.65;;;;;;;8.50;91.11;99921.00;5115616;28;20069;-84
2021/12/29 04:12:18;;;;;;;0.90;0.90;;;;;;;8.59;90.88;99925.06;5166988;28;20030;-84
2021/12/29 04:15:11;;;;;;;0.70;0.70;;;;;;;8.47;91.19;99923.72;5151920;28;20038;-83
2021/12/29 04:17:43;;;;;;;;;;;;;;;8.54;91.05;99932.22;5170752;28;20097;-84
2021/12/29 04:23:34;;;;;;;0.68;0.68;;;;;;;8.48;91.28;99930.66;5142167;28;20070;-82
2021/12/29 04:26:18;;;;;;;0.50;0.50;;;;;;;8.49;91.26;99942.81;5157161;28;20022;-82
2021/12/29 04:28:54;;;;;;;1.60;1.50;;;;;;;8.50;91.04;99948.00;5135218;28;20042;-82
2021/12/29 04:31:29;;;;;;;0.75;0.75;;;;;;;8.46;91.40;99945.50;5169646;28;20037;-82
2021/12/29 04:34:03;;;;;;;0.50;0.50;;;;;;;8.45;91.22;99949.00;5123683;28;20504;-84
2021/12/29 04:36:36;;;;;;;0.60;0.60;;;;;;;8.44;90.96;99948.16;5148474;28;20035;-81
2021/12/29 04:39:11;;;;;;;0.50;0.50;;;;;;;8.42;91.50;99963.03;5156732;28;20051;-84
2021/12/29 04:41:47;;;;;;;0.82;0.82;;;;;;;8.46;91.09;99967.28;5174623;28;20062;-83
2021/12/29 04:44:25;;;;;;;1.55;1.45;;;;;;;8.50;90.58;99965.44;5138106;28;20046;-83
2021/12/29 04:46:57;;;;;;;4.85;1.77;;;;;;;8.43;91.25;99969.97;5138482;28;20094;-85
2021/12/29 04:49:39;;;;;;;1.00;1.00;;;;;;;8.47;90.82;99973.38;5149375;28;20047;-83
2021/12/29 04:52:13;;;;;;;1.75;1.65;;;;;;;8.52;90.87;99973.25;5148360;28;20033;-85
2021/12/29 04:54:46;;;;;;;0.82;0.82;;;;;;;8.54;90.38;99972.28;5135918;28;20044;-83
2021/12/29 04:57:50;;;;;;;1.45;0.88;;;;;;;8.53;91.02;99970.56;5159291;28;20023;-83
2021/12/29 05:00:28;;;;;;;1.48;1.38;;;;;;;8.47;90.67;99976.00;5132101;28;20030;-85
2021/12/29 05:03:21;;;;;;;0.73;0.73;;;;;;;8.36;91.15;99973.69;5152493;28;20035;-84
2021/12/29 05:08:38;;;;;;;0.50;0.50;;;;;;;8.41;90.87;99982.22;5163049;28;20038;-82
2021/12/29 05:11:30;;;;;;;;;;;;;;;;;;;;;
2021/12/29 05:14:28;;;;;;;;;;;;;;;;;;;;;
2021/12/29 05:17:09;;;;;;;;;;;;;;;;;;;;;
2021/12/29 05:19:40;;;;;;;2.20;1.20;;;;;;;8.26;91.22;99998.38;5159484;28;20060;-83
2021/12/29 05:22:33;;;;;;;;;;;;;;;8.35;91.26;100004.16;5154323;28;20026;-83
2021/12/29 05:25:06;;;;;;;0.77;0.47;;;;;;;8.25;91.56;100007.09;5166701;28;19961;-83
2021/12/29 05:27:38;;;;;;;0.60;0.60;;;;;;;8.19;91.32;100008.13;5169635;28;20023;-83
2021/12/29 05:30:17;;;;;;;0.70;0.70;;;;;;;8.23;91.66;100003.66;5146979;28;20528;-82
2021/12/29 05:33:03;;;;;;;1.45;1.35;;;;;;;8.26;91.07;100019.28;5144981;28;20038;-81
2021/12/29 05:35:38;;;;;;;0.40;0.40;;;;;;;8.23;91.35;100014.13;5168149;28;20046;-82
2021/12/29 05:38:13;;;;;;;0.88;0.88;;;;;;;8.23;91.17;100030.69;5149953;28;20031;-84
2021/12/29 05:40:48;;;;;;;0.82;0.82;;;;;;;8.19;91.54;100029.03;5161403;28;20034;-82
2021/12/29 05:43:22;;;;;;;0.73;0.73;;;;;;;8.24;91.36;100028.91;5136152;28;20138;-83
2021/12/29 05:45:53;;;;;;;0.57;0.57;;;;;;;8.17;91.33;100020.41;5126759;28;20065;-82
2021/12/29 05:48:42;;;;;;;0.90;0.90;;;;;;;8.23;91.36;100035.03;5153560;28;20069;-84
2021/12/29 05:51:13;;;;;;;1.42;1.33;;;;;;;8.21;91.43;100034.25;5156496;28;20023;-84
2021/12/29 05:53:53;;;;;;;1.05;1.05;;;;;;;8.15;91.57;100025.66;5147971;28;20042;-84
2021/12/29 05:56:29;;;;;;;0.68;0.68;;;;;;;8.19;91.51;100032.53;5154760;28;20046;-84
2021/12/29 05:59:01;;;;;;;0.90;0.90;;;;;;;8.15;91.49;100033.50;5132691;28;20050;-84
2021/12/29 06:01:54;;;;;;;1.40;1.08;;;;;;;8.20;91.40;100041.22;5159783;28;20018;-86
2021/12/29 06:04:30;;;;;;;1.13;1.13;;;;;;;8.18;91.61;100043.88;5146421;28;20805;-85
2021/12/29 06:07:11;;;;;;;0.75;0.60;;;;;;;8.17;91.73;100051.75;5174765;28;20032;-82
2021/12/29 06:09:47;;;;;;;1.83;1.73;;;;;;;8.18;91.52;100051.72;5117403;28;20093;-84
2021/12/29 06:12:29;;;;;;;1.33;1.23;;;;;;;8.21;91.30;100037.69;5171247;28;20030;-83
2021/12/29 06:15:25;;;;;;;5.20;1.50;;;;;;;8.19;91.14;100040.38;5125318;28;20096;-83
2021/12/29 06:18:01;;;;;;;1.08;0.85;;;;;;;8.16;91.41;100042.22;5128662;28;20479;-84
2021/12/29 06:20:42;;;;;;;1.45;1.38;;;;;;;8.17;91.43;100038.69;5138374;28;20466;-83
2021/12/29 06:23:20;;;;;;;0.65;0.65;;;;;;;8.12;91.30;100044.06;5139789;28;20034;-84
2021/12/29 06:25:53;;;;;;;1.42;1.33;;;;;;;8.10;91.69;100048.44;5139239;28;20093;-84
2021/12/29 06:28:43;;;;;;;1.65;1.55;;;;;;;8.13;91.60;100045.78;5156368;28;20089;-83
2021/12/29 06:31:23;;;;;;;1.33;1.23;;;;;;;8.15;91.58;100053.56;5136827;28;20049;-82
2021/12/29 06:33:59;;;;;;;1.65;1.55;;;;;;;8.12;91.63;100051.88;5145038;28;20042;-84
2021/12/29 06:36:34;;;;;;;0.82;0.82;;;;;;;8.09;91.90;100059.81;5146382;28;20045;-82
2021/12/29 06:39:10;;;;;;;0.95;0.95;;;;;;;8.12;91.39;100072.78;5160433;28;20075;-84
2021/12/29 06:41:55;;;;;;;;;;;;;;;;;;;;;
2021/12/29 06:44:44;;;;;;;0.70;0.70;;;;;;;8.16;91.16;100084.84;5162100;28;20038;-82
2021/12/29 06:47:18;;;;;;;0.65;0.65;;;;;;;8.16;90.92;100079.63;5165997;28;20031;-82
2021/12/29 06:49:48;;;;;;;;;;;;;;;8.16;91.08;100086.63;5141390;28;20086;-82
2021/12/29 06:52:19;;;;;;;0.50;0.50;;;;;;;8.17;90.79;100089.19;5168110;28;19993;-83
2021/12/29 06:54:58;;;;;;;1.15;1.15;;;;;;;8.17;90.84;100093.56;5134552;28;20049;-83
2021/12/29 06:57:29;;;;;;;0.75;0.75;;;;;;;8.24;90.67;100091.63;5143570;28;20122;-82
2021/12/29 07:00:00;;;;;;;0.30;0.30;;;;;;;8.19;90.44;100094.38;5140441;28;20058;-82
2021/12/29 07:03:01;;;;;;;;;;;;;;;;;;;;;
2021/12/29 07:05:49;;;;;;;0.60;0.60;;;;;;;8.17;90.28;100109.25;5144470;28;20038;-82
2021/12/29 07:08:41;;;;;;;0.95;0.95;;;;;;;8.15;90.33;100114.50;5137196;28;20046;-83
2021/12/29 07:11:24;;;;;;;1.58;1.48;;;;;;;8.22;90.58;100111.75;5165929;28;20402;-85
2021/12/29 07:14:02;;;;;;;0.70;0.70;;;;;;;8.25;89.95;100111.66;5145411;28;20073;-85
2021/12/29 07:16:47;;;;;;;;;;;;;;;;;;;;;
2021/12/29 07:19:25;;;;;;;0.87;0.87;;;;;;;8.19;89.24;100108.31;5168003;28;20042;-82
2021/12/29 07:22:03;;;;;;;1.45;1.45;;;;;;;8.18;89.75;100111.81;5170007;28;20051;-84
2021/12/29 07:25:17;;;;;;;;;;;;;;;;;;;;;
2021/12/29 07:28:30;;;;;;;;;;;;;;;;;;;;;
2021/12/29 07:31:45;;;;;;;0.70;0.70;;;;;;;8.19;88.85;100118.75;5153820;28;20042;-86
2021/12/29 07:34:39;;;;;;;0.60;0.60;;;;;;;8.16;89.09;100128.44;5139795;28;20054;-85
2021/12/29 07:37:33;;;;;;;1.27;1.20;;;;;;;8.17;88.30;100124.94;5139480;28;20410;-84
2021/12/29 07:40:35;;;;;;;0.50;0.50;;;;;;;8.18;88.49;100137.94;5144543;28;20064;-83
2021/12/29 07:43:06;;;;;;;0.70;0.70;;;;;;;8.23;88.21;100134.34;5162905;28;20412;-88
2021/12/29 07:45:47;;;;;;;0.70;0.70;;;;;;;8.22;88.33;100138.72;5166681;28;20031;-87
2021/12/29 07:48:19;;;;;;;0.40;0.40;;;;;;;8.17;88.28;100149.31;5112407;28;20058;-84
2021/12/29 07:51:04;;;;;;;0.57;0.57;;;;;;;8.19;88.27;100165.81;5144375;28;20517;-86
2021/12/29 07:53:37;;;;;;;0.60;0.60;;;;;;;8.15;88.42;100161.53;5127424;28;20079;-85
2021/12/29 07:56:16;;;;;;;0.77;0.77;;;;;;;8.23;87.71;100168.31;5128817;28;20031;-84
2021/12/29 07:58:47;;;;;;;1.20;1.17;;;;;;;8.23;87.97;100165.69;5131205;28;20057;-84
2021/12/29 08:01:18;;;;;;;0.63;0.63;;;;;;;8.16;88.06;100165.88;5150281;28;20065;-84
2021/12/29 08:03:54;;;;;;;1.30;0.60;;;;;;;8.21;87.84;100164.91;5164582;28;20038;-84
2021/12/29 08:06:31;;;;;;;0.77;0.77;;;;;;;8.16;87.96;100175.47;5162735;28;20493;-88
2021/12/29 08:09:16;;;;;;;0.63;0.63;;;;;;;8.25;87.82;100176.97;5152256;28;20038;-86
2021/12/29 08:11:52;;;;;;;0.60;0.60;;;;;;;8.16;87.77;100186.78;5166115;28;20524;-85
2021/12/29 08:14:28;;;;;;;0.40;0.40;;;;;;;8.18;87.39;100182.38;5156556;28;20144;-87
2021/12/29 08:17:14;;;;;;;;;;;;;;;;;;;;;
2021/12/29 08:20:15;;;;;;;0.57;0.57;;;;;;;8.19;87.40;100188.44;5111333;28;20078;-86
2021/12/29 08:23:19;;;;;;;0.40;0.40;;;;;;;8.23;87.33;100186.63;5112217;28;20089;-86
2021/12/29 08:25:54;;;;;;;0.55;0.55;;;;;;;8.18;87.11;100187.59;5134684;28;20045;-85
2021/12/29 08:28:37;;;;;;;0.50;0.50;;;;;;;8.22;87.29;100187.53;5137121;28;20038;-86
2021/12/29 08:35:33;;;;;;;0.65;0.65;;;;;;;8.29;87.08;100196.94;4975939;29;20677;-87
2021/12/29 08:39:25;;;;;;;;;;;;;;;;;;;;;
2021/12/29 08:42:26;;;;;;;;;;;;;;;;;;;;;
2021/12/29 08:45:30;;;;;;;1.13;0.98;;;;;;;8.31;86.84;100189.88;5083507;29;20048;-87
2021/12/29 08:48:03;;;;;;;;;;;;;;;8.33;87.16;100194.19;5062101;28;20046;-83
2021/12/29 08:50:54;;;;;;;0.88;0.88;;;;;;;8.46;86.31;100201.69;5124454;28;19916;-84
2021/12/29 08:53:27;;;;;;;0.60;0.60;;;;;;;8.46;86.23;100194.72;5129387;28;20034;-83
2021/12/29 09:00:38;;;;;;;0.82;0.82;;;;;;;8.44;86.26;100193.91;5014746;28;20138;-85
2021/12/29 09:03:38;;;;;;;1.60;1.50;;;;;;;8.43;86.48;100188.72;4985552;29;20065;-85
2021/12/29 09:07:22;;;;;;;0.65;0.65;;;;;;;8.35;85.95;100194.16;5047538;29;20032;-84
2021/12/29 09:10:44;;;;;;;;;;;;;;;;;;;;;
2021/12/29 09:13:26;;;;;;;0.80;0.80;;;;;;;8.39;85.64;100201.00;5054132;29;20063;-83
2021/12/29 09:16:38;;;;;;;0.75;0.75;;;;;;;8.39;85.85;100206.22;5045935;29;20092;-84
2021/12/29 09:19:19;;;;;;;2.05;0.88;;;;;;;8.44;85.00;100206.09;5044847;28;20090;-83
2021/12/29 09:22:18;;;;;;;2.83;0.73;;;;;;;8.41;85.17;100206.22;5126562;28;20031;-84
2021/12/29 09:24:57;;;;;;;0.40;0.40;;;;;;;8.46;85.03;100214.78;5088040;28;20070;-82
2021/12/29 09:27:30;;;;;;;0.50;0.50;;;;;;;8.48;85.66;100220.84;5131710;28;20049;-83
2021/12/29 09:30:17;;;;;;;;;;;;;;;;;;;;;
2021/12/29 09:33:25;;;;;;;;;;;;;;;;;;;;;
2021/12/29 09:36:08;;;;;;;0.43;0.43;;;;;;;8.47;85.16;100216.53;5113848;28;20043;-83
2021/12/29 09:38:54;;;;;;;2.20;1.20;;;;;;;8.47;85.61;100209.53;5101137;28;20042;-81
2021/12/29 09:41:30;;;;;;;1.08;1.08;;;;;;;8.52;85.33;100213.78;5117349;28;20043;-82
2021/12/29 09:44:25;;;;;;;0.98;0.98;;;;;;;8.64;86.18;100213.44;5044016;29;20140;-82
2021/12/29 09:46:59;;;;;;;1.10;1.05;;;;;;;8.69;85.76;100222.03;5041645;29;20032;-82
2021/12/29 09:49:34;;;;;;;0.90;0.88;;;;;;;8.65;85.36;100220.41;5099542;28;20039;-82
2021/12/29 09:52:15;;;;;;;1.55;1.27;;;;;;;8.66;85.14;100222.13;5124058;28;20050;-82
2021/12/29 09:55:09;;;;;;;;;;;;;;;;;;;;;
2021/12/29 09:57:53;;;;;;;0.73;0.73;;;;;;;8.65;85.82;100230.84;5145578;28;20110;-81
2021/12/29 10:00:34;;;;;;;0.80;0.80;;;;;;;8.68;85.49;100233.41;5145422;28;20046;-81
2021/12/29 10:03:11;;;;;;;1.48;1.38;;;;;;;8.67;85.86;100236.91;5165072;28;20527;-82
2021/12/29 10:05:48;;;;;;;0.70;0.70;;;;;;;8.80;85.77;100224.34;5113044;28;20421;-81
2021/12/29 10:08:24;;;;;;;1.27;1.15;;;;;;;8.74;86.00;100212.31;5130537;28;20049;-82
2021/12/29 10:11:41;;;;;;;1.65;1.55;;;;;;;8.79;85.79;100207.81;5165486;28;20042;-82
2021/12/29 10:14:38;;;;;;;1.23;1.15;;;;;;;8.81;85.84;100213.84;5115562;28;20053;-82
2021/12/29 10:17:11;;;;;;;7.53;1.95;;;;;;;8.89;86.07;100212.75;5141257;28;20039;-82
2021/12/29 10:20:25;;;;;;;0.63;0.63;;;;;;;8.89;85.56;100207.53;5141248;28;20557;-82
2021/12/29 10:23:08;;;;;;;0.93;0.80;;;;;;;8.92;85.31;100203.09;5125048;28;20386;-82
2021/12/29 10:25:42;;;;;;;0.63;0.63;;;;;;;8.93;85.94;100196.09;5146540;28;20042;-82
2021/12/29 10:28:26;;;;;;;0.75;0.75;;;;;;;8.95;85.80;100202.16;5150967;28;20560;-81
2021/12/29 10:31:04;;;;;;;0.47;0.47;;;;;;;9.03;84.88;100192.31;5127301;28;20126;-82
2021/12/29 10:33:53;;;;;;;1.23;1.23;;;;;;;9.07;85.37;100178.22;5157475;28;20054;-82
2021/12/29 10:36:41;;;;;;;0.93;0.90;;;;;;;9.06;85.15;100173.88;5125170;28;20027;-82
2021/12/29 10:39:17;;;;;;;0.50;0.50;;;;;;;9.12;85.20;100175.47;5155340;28;20173;-82
2021/12/29 10:42:02;;;;;;;0.50;0.50;;;;;;;9.12;84.77;100178.97;5144229;28;20034;-82
2021/12/29 10:44:39;;;;;;;0.40;0.40;;;;;;;9.08;84.71;100177.31;5133643;28;20046;-82
2021/12/29 10:47:13;;;;;;;0.60;0.60;;;;;;;9.13;84.76;100179.81;5144842;28;20034;-80
2021/12/29 10:49:53;;;;;;;;;;;;;;;9.18;84.96;100187.53;5144542;28;20034;-80
2021/12/29 10:53:01;;;;;;;1.20;1.20;;;;;;;9.17;84.54;100170.09;5146478;28;19960;-82
2021/12/29 10:55:38;;;;;;;1.30;1.30;;;;;;;9.20;84.90;100164.78;5149130;28;20049;-81
2021/12/29 10:58:35;;;;;;;0.93;0.93;;;;;;;9.14;83.94;100171.91;5134768;28;20469;-89
2021/12/29 11:05:36;;;;;;;0.40;0.40;;;;;;;9.20;84.51;100175.25;5162150;28;20042;-84
2021/12/29 11:08:11;;;;;;;1.48;1.38;;;;;;;9.34;84.76;100173.06;5136957;28;20054;-82
2021/12/29 11:10:44;;;;;;;0.50;0.50;;;;;;;9.30;84.05;100166.19;5139779;28;20026;-80
2021/12/29 11:13:59;;;;;;;0.40;0.40;;;;;;;9.29;83.35;100164.50;5143079;28;20772;-82
2021/12/29 11:16:38;;;;;;;3.58;2.65;;;;;;;9.29;84.08;100167.97;5145681;28;20652;-84
2021/12/29 11:19:30;;;;;;;;;;;;;;;;;;;;;
2021/12/29 11:22:52;;;;;;;0.90;0.90;;;;;;;9.33;84.01;100162.66;5125256;28;20547;-82
2021/12/29 11:26:14;;;;;;;;;;;;;;;;;;;;;
2021/12/29 11:30:01;;;;;;;0.70;0.70;;;;;;;9.40;83.05;100161.56;5079023;28;20035;-84
2021/12/29 11:32:38;;;;;;;0.40;0.40;;;;;;;9.40;83.36;100172.03;5117314;28;20046;-82
2021/12/29 11:35:31;;;;;;;0.70;0.70;;;;;;;9.45;83.08;100180.59;5119432;28;20045;-82
2021/12/29 11:38:02;;;;;;;0.50;0.50;;;;;;;9.51;83.07;100195.25;5149550;28;20049;-81
2021/12/29 11:40:35;;;;;;;0.50;0.50;;;;;;;9.50;83.24;100194.41;5134788;28;20458;-81
2021/12/29 11:43:08;;;;;;;0.52;0.52;;;;;;;9.47;83.10;100204.09;5118488;28;20037;-81
2021/12/29 11:45:43;;;;;;;0.50;0.50;;;;;;;9.48;83.13;100192.72;5144064;28;20057;-81
2021/12/29 11:48:29;;;;;;;0.30;0.30;;;;;;;9.54;83.50;100169.81;5127380;28;20463;-81
2021/12/29 11:51:12;;;;;;;2.58;1.27;;;;;;;9.52;82.96;100162.94;5128389;28;20041;-80
2021/12/29 11:53:58;;;;;;;0.30;0.30;;;;;;;9.50;82.18;100167.34;5142380;28;20065;-81
2021/12/29 11:56:52;;;;;;;1.38;0.85;;;;;;;9.41;81.32;100171.97;5133133;28;20490;-81
2021/12/29 11:59:41;;;;;;;1.83;1.60;;;;;;;9.45;83.07;100172.72;5153732;28;20265;-83
2021/12/29 12:02:42;;;;;;;0.55;0.55;;;;;;;9.55;82.57;100165.44;5162898;28;20030;-83
2021/12/29 12:06:15;;;;;;;0.60;0.60;;;;;;;9.48;82.36;100164.78;5151414;28;20049;-83
2021/12/29 12:09:09;;;;;;;0.47;0.47;;;;;;;9.48;82.31;100161.28;5139346;28;20039;-84
2021/12/29 12:16:27;;;;;;;;;;;;;;;9.53;82.46;100148.94;5105455;28;20118;-83
2021/12/29 12:20:47;;;;;;;1.33;1.30;;;;;;;9.48;81.66;100153.44;5074415;28;19922;-86
2021/12/29 12:24:10;;;;;;;0.50;0.50;;;;;;;9.55;82.52;100152.34;5040265;28;20206;-86
2021/12/29 12:27:16;;;;;;;;;;;;;;;;;;;;;
2021/12/29 12:30:15;;;;;;;8.20;1.15;;;;;;;9.52;82.11;100144.59;5118808;28;20042;-84
2021/12/29 12:33:20;;;;;;;0.73;0.65;;;;;;;9.47;81.33;100138.63;5132260;28;20042;-85
2021/12/29 12:36:16;;;;;;;0.65;0.65;;;;;;;9.56;82.92;100148.81;5162476;28;20688;-86
2021/12/29 12:39:35;;;;;;;;;;;;;;;;;;;;;
2021/12/29 12:42:29;;;;;;;;;;;;;;;;;;;;;
2021/12/29 12:45:55;;;;;;;0.50;0.50;;;;;;;9.58;80.18;100155.75;5133083;28;20382;-88
2021/12/29 12:48:46;;;;;;;0.40;0.40;;;;;;;9.53;81.16;100148.94;5109221;28;20057;-85
2021/12/29 12:51:22;;;;;;;0.40;0.40;;;;;;;9.59;81.86;100161.81;5129408;28;20700;-85
2021/12/29 12:53:58;;;;;;;0.40;0.40;;;;;;;9.51;82.10;100154.19;5105506;28;20504;-87
2021/12/29 12:56:34;;;;;;;0.45;0.45;;;;;;;9.56;82.18;100151.44;5129301;28;20030;-83
2021/12/29 12:59:20;;;;;;;0.60;0.60;;;;;;;9.59;82.52;100143.50;5166514;28;20054;-86
2021/12/29 13:05:56;;;;;;;0.40;0.40;;;;;;;9.75;82.72;100131.59;5137098;28;20035;-85
2021/12/29 13:08:40;;;;;;;0.70;0.70;;;;;;;9.66;83.00;100124.03;5121486;28;20291;-86
2021/12/29 13:11:27;;;;;;;0.77;0.77;;;;;;;9.70;83.23;100132.66;5113479;28;20053;-83
2021/12/29 13:14:45;;;;;;;0.88;0.88;;;;;;;9.70;83.15;100111.69;5126173;28;20092;-86
2021/12/29 13:17:36;;;;;;;0.30;0.30;;;;;;;9.75;82.90;100115.88;5162377;28;20635;-85
2021/12/29 13:20:18;;;;;;;0.40;0.40;;;;;;;9.72;83.27;100110.72;5152509;28;20038;-84
2021/12/29 13:23:19;;;;;;;0.85;0.85;;;;;;;9.77;83.81;100118.44;5127064;28;20401;-84
2021/12/29 13:26:01;;;;;;;0.30;0.30;;;;;;;9.76;83.67;100107.13;5158774;28;20038;-82
2021/12/29 13:29:01;;;;;;;;;;;;;;;;;;;;;
2021/12/29 13:31:32;;;;;;;1.05;0.98;;;;;;;9.78;83.74;100114.91;5172283;28;20058;-84
2021/12/29 13:34:10;;;;;;;0.50;0.50;;;;;;;9.77;83.59;100103.59;5144541;28;20042;-83
2021/12/29 13:36:57;;;;;;;;;;;;;;;;;;;;;
2021/12/29 13:39:40;;;;;;;;;;;;;;;;;;;;;
2021/12/29 13:42:13;;;;;;;0.75;0.75;;;;;;;9.80;83.41;100115.72;5157039;28;20069;-82
2021/12/29 13:44:48;;;;;;;0.40;0.40;;;;;;;9.84;83.75;100122.56;5145297;28;20038;-83
2021/12/29 13:50:53;;;;;;;0.50;0.50;;;;;;;9.80;83.51;100112.25;5152621;28;20603;-84
2021/12/29 13:53:40;;;;;;;0.57;0.57;;;;;;;9.79;83.43;100106.16;5131486;28;20047;-82
2021/12/29 13:56:43;;;;;;;0.40;0.40;;;;;;;9.82;83.93;100098.19;5131145;28;20121;-83
2021/12/29 13:59:19;;;;;;;0.77;0.77;;;;;;;9.86;83.51;100091.09;5137243;28;20049;-84
2021/12/29 14:02:00;;;;;;;0.30;0.30;;;;;;;9.79;83.91;100084.34;5129620;28;20058;-84
2021/12/29 14:04:56;;;;;;;;;;;;;;;;;;;;;
2021/12/29 14:07:29;;;;;;;0.50;0.50;;;;;;;9.88;82.75;100079.66;5141961;28;20094;-84
2021/12/29 14:09:59;;;;;;;0.52;0.52;;;;;;;9.87;82.91;100072.69;5153135;28;20026;-82
2021/12/29 14:12:33;;;;;;;0.40;0.40;;;;;;;9.86;83.57;100065.72;5150558;28;20065;-84
2021/12/29 14:15:09;;;;;;;0.52;0.52;;;;;;;9.87;82.50;100056.13;5162883;28;20070;-83
2021/12/29 14:17:44;;;;;;;0.52;0.52;;;;;;;9.76;83.00;100048.63;5134728;28;20058;-83
2021/12/29 14:20:16;;;;;;;0.85;0.85;;;;;;;9.68;82.20;100048.91;5137751;28;20038;-84